Time;durP1;ratioP1;P1;durP2;ratioP2;P2;SDS_P1;SDS_P2;PMS_P1;PMS_P2;Temp;Humidity;BMP_temperature;BMP_pressure;BME280_temperature;BME280_humidity;BME280_pressure;Samples;Min_cycle;Max_cycle;Signal;HPM_P1;HPM_P2
2022/07/12 17:48:14;;;;;;;;;;;22.50;99.90;;;;;;8391171;27;20375;-85
2022/07/12 17:52:16;;;;;;;;;;;22.70;99.90;;;;;;8357933;28;20015;-84
2022/07/12 17:56:16;;;;;;;1.60;0.60;;;22.60;99.90;;;;;;8302647;28;68613;-79
2022/07/12 18:00:18;;;;;;;0.82;0.50;;;21.70;99.90;;;;;;8360327;28;20041;-76
2022/07/12 18:04:18;;;;;;;1.48;0.50;;;21.70;99.90;;;;;;8368838;28;20043;-76
2022/07/12 18:08:19;;;;;;;4.53;0.70;;;21.20;99.90;;;;;;8365770;28;20022;-76
2022/07/12 18:16:39;;;;;;;2.03;0.70;;;21.10;99.90;;;;;;8367320;28;20048;-82
2022/07/12 18:20:39;;;;;;;1.55;0.50;;;21.80;99.90;;;;;;8385208;28;20550;-81
2022/07/12 18:24:40;;;;;;;2.15;0.52;;;21.60;99.90;;;;;;8387013;28;20021;-81
2022/07/12 18:28:41;;;;;;;0.50;0.50;;;21.30;99.90;;;;;;8383461;28;20094;-79
2022/07/12 18:32:41;;;;;;;1.13;0.50;;;21.00;99.90;;;;;;8382924;28;20583;-80
2022/07/12 18:36:42;;;;;;;1.55;0.40;;;20.90;99.90;;;;;;8377028;28;20514;-79
2022/07/12 18:40:44;;;;;;;1.73;0.52;;;20.70;99.90;;;;;;8369950;28;20092;-81
2022/07/12 18:44:44;;;;;;;1.23;0.88;;;20.50;99.90;;;;;;8381260;28;20025;-82
2022/07/12 18:48:45;;;;;;;3.65;0.68;;;20.20;99.90;;;;;;8382910;28;20510;-82
2022/07/12 18:52:45;;;;;;;1.83;0.57;;;20.20;99.90;;;;;;8382533;28;20033;-82
2022/07/12 18:56:46;;;;;;;1.67;0.60;;;20.40;99.90;;;;;;8378546;28;20084;-82
2022/07/12 19:00:46;;;;;;;2.72;0.52;;;20.40;99.90;;;;;;8353168;28;20040;-82
2022/07/12 19:04:47;;;;;;;6.90;0.80;;;20.20;99.90;;;;;;8357735;28;20484;-83
2022/07/12 19:08:48;;;;;;;3.63;0.85;;;19.90;99.90;;;;;;8352595;28;20492;-81
2022/07/12 19:12:49;;;;;;;2.75;0.60;;;19.50;99.90;;;;;;8351985;28;20072;-82
2022/07/12 19:16:49;;;;;;;2.50;0.60;;;19.40;99.90;;;;;;8357474;28;20481;-82
2022/07/12 19:20:50;;;;;;;0.88;0.60;;;19.30;99.90;;;;;;8351353;28;20017;-82
2022/07/12 19:24:51;;;;;;;1.63;0.80;;;19.00;99.90;;;;;;8344306;28;20029;-82
2022/07/12 19:28:51;;;;;;;3.28;0.77;;;18.90;99.90;;;;;;8350478;28;20133;-83
2022/07/12 19:32:52;;;;;;;10.93;0.98;;;18.80;99.90;;;;;;8365417;28;20059;-81
2022/07/12 19:36:52;;;;;;;3.85;1.10;;;18.70;99.90;;;;;;8357501;28;20116;-81
2022/07/12 19:40:53;;;;;;;5.75;1.40;;;18.70;99.90;;;;;;8359472;28;20025;-81
2022/07/12 19:44:53;;;;;;;2.10;1.23;;;18.50;99.90;;;;;;8366428;28;20037;-81
2022/07/12 19:48:54;;;;;;;3.28;1.35;;;18.20;99.90;;;;;;8362581;28;20043;-82
2022/07/12 19:52:58;;;;;;;4.70;1.67;;;17.90;99.90;;;;;;8359237;28;20024;-81
2022/07/12 19:56:58;;;;;;;4.97;1.67;;;17.60;99.90;;;;;;8361798;28;20401;-81
2022/07/12 20:00:59;;;;;;;4.38;1.65;;;17.40;99.90;;;;;;8364301;28;20048;-81
2022/07/12 20:05:00;;;;;;;4.13;1.50;;;17.10;99.90;;;;;;8362140;28;20025;-81
2022/07/12 20:09:00;;;;;;;5.22;1.63;;;16.90;99.90;;;;;;8361502;28;20096;-81
2022/07/12 20:13:01;;;;;;;4.50;1.40;;;16.70;99.90;;;;;;8365935;28;20503;-80
2022/07/12 20:17:01;;;;;;;5.70;1.60;;;16.70;99.90;;;;;;8366479;28;20128;-81
2022/07/12 20:21:02;;;;;;;7.03;1.40;;;16.60;99.90;;;;;;8360937;28;20029;-81
2022/07/12 20:25:05;;;;;;;6.18;1.20;;;16.30;99.90;;;;;;8361601;28;20031;-81
2022/07/12 20:29:05;;;;;;;4.20;1.30;;;16.10;99.90;;;;;;8360935;28;20028;-81
2022/07/12 20:37:25;;;;;;;1.70;1.30;;;16.00;99.90;;;;;;8361822;28;20044;-82
2022/07/12 20:41:26;;;;;;;1.52;1.20;;;16.20;99.90;;;;;;8365855;28;20013;-83
2022/07/12 20:45:27;;;;;;;1.60;0.90;;;16.10;99.90;;;;;;8360941;28;20597;-82
2022/07/12 20:49:28;;;;;;;3.53;1.20;;;16.00;99.90;;;;;;8360219;28;20112;-83
2022/07/12 20:53:28;;;;;;;2.55;1.15;;;15.80;99.90;;;;;;8360689;28;20051;-83
2022/07/12 20:57:29;;;;;;;3.22;1.00;;;15.60;99.90;;;;;;8358410;28;20037;-84
2022/07/12 21:01:30;;;;;;;1.35;0.90;;;15.50;99.90;;;;;;8360719;28;20564;-83
2022/07/12 21:05:31;;;;;;;2.55;0.80;;;15.60;99.90;;;;;;8359426;28;20112;-83
2022/07/12 21:09:32;;;;;;;5.70;0.90;;;15.60;99.90;;;;;;8360481;28;20387;-82
2022/07/12 21:13:33;;;;;;;2.47;1.25;;;15.40;99.90;;;;;;8360972;28;20082;-82
2022/07/12 21:17:41;;;;;;;2.30;0.80;;;15.30;99.90;;;;;;8360174;28;20112;-82
2022/07/12 21:21:42;;;;;;;1.83;0.90;;;15.30;99.90;;;;;;8361170;28;20029;-83
2022/07/12 21:25:44;;;;;;;5.18;1.08;;;15.20;99.90;;;;;;8359672;28;20032;-83
2022/07/12 21:29:44;;;;;;;2.47;0.98;;;15.00;99.90;;;;;;8359941;28;20222;-83
2022/07/12 21:33:45;;;;;;;2.17;1.10;;;14.80;99.90;;;;;;8359769;28;20063;-83
2022/07/12 21:37:45;;;;;;;4.20;1.10;;;14.50;99.90;;;;;;8359556;28;20028;-83
2022/07/12 21:41:46;;;;;;;1.35;0.90;;;14.30;99.90;;;;;;8357463;28;20392;-84
2022/07/12 21:45:47;;;;;;;4.75;1.10;;;14.10;99.90;;;;;;8359952;28;20078;-82
2022/07/12 21:49:48;;;;;;;1.52;0.90;;;14.00;99.90;;;;;;8359389;28;20033;-83
2022/07/12 21:53:48;;;;;;;1.95;1.25;;;14.20;99.90;;;;;;8360528;28;20040;-82
2022/07/12 21:57:49;;;;;;;3.53;1.10;;;14.00;99.90;;;;;;8357911;28;20036;-83
2022/07/12 22:01:49;;;;;;;3.63;0.85;;;13.90;99.90;;;;;;8358823;28;20021;-83
2022/07/12 22:05:50;;;;;;;1.77;1.27;;;13.70;99.90;;;;;;8358990;28;20031;-82
2022/07/12 22:09:50;;;;;;;2.42;1.10;;;13.50;99.90;;;;;;8360011;28;20033;-82
2022/07/12 22:13:51;;;;;;;2.50;1.20;;;13.40;99.90;;;;;;8359141;28;20029;-83
2022/07/12 22:17:52;;;;;;;1.25;1.05;;;13.30;99.90;;;;;;8358940;28;20112;-83
2022/07/12 22:21:52;;;;;;;3.45;1.10;;;13.30;99.90;;;;;;8363468;28;20029;-82
2022/07/12 22:25:57;;;;;;;1.52;1.00;;;13.30;99.90;;;;;;8358774;28;20032;-82
2022/07/12 22:29:58;;;;;;;6.45;1.02;;;13.70;99.90;;;;;;8360100;28;20021;-84
2022/07/12 22:33:58;;;;;;;3.45;1.40;;;13.50;99.90;;;;;;8363453;28;20039;-83
2022/07/12 22:37:59;;;;;;;1.85;1.02;;;13.40;99.90;;;;;;8366460;28;20535;-83
2022/07/12 22:42:00;;;;;;;2.70;1.42;;;13.10;99.90;;;;;;8364925;28;20017;-83
2022/07/12 22:46:01;;;;;;;1.20;1.10;;;12.90;99.90;;;;;;8364524;28;20068;-82
2022/07/12 22:50:01;;;;;;;1.85;1.40;;;12.70;99.90;;;;;;8364041;28;20028;-83
2022/07/12 22:54:02;;;;;;;1.30;1.20;;;12.50;99.90;;;;;;8366087;28;20555;-83
2022/07/12 22:58:03;;;;;;;4.05;1.35;;;12.40;99.90;;;;;;8365148;28;20033;-82
2022/07/12 23:02:04;;;;;;;1.88;1.30;;;12.80;99.90;;;;;;8364040;28;20052;-82
2022/07/12 23:06:04;;;;;;;1.67;1.10;;;13.00;99.90;;;;;;8364087;28;20032;-83
2022/07/12 23:10:05;;;;;;;3.42;1.50;;;13.00;99.90;;;;;;8363731;28;20048;-83
2022/07/12 23:14:06;;;;;;;1.65;1.33;;;12.70;99.90;;;;;;8365117;28;20503;-83
2022/07/12 23:18:06;;;;;;;1.33;1.23;;;12.30;99.90;;;;;;8364817;28;20024;-82
2022/07/12 23:22:07;;;;;;;2.45;1.42;;;12.10;99.90;;;;;;8363577;28;20025;-82
2022/07/12 23:26:08;;;;;;;3.10;1.55;;;11.90;99.90;;;;;;8363661;28;20031;-83
2022/07/12 23:30:09;;;;;;;2.08;1.20;;;12.20;99.90;;;;;;8365388;28;20536;-82
2022/07/12 23:34:10;;;;;;;2.95;1.30;;;12.30;99.90;;;;;;8362656;28;20225;-82
2022/07/12 23:38:10;;;;;;;1.73;1.13;;;12.10;99.90;;;;;;8363411;28;20131;-82
2022/07/12 23:42:11;;;;;;;1.67;1.35;;;12.00;99.90;;;;;;8362639;28;20028;-83
2022/07/12 23:46:11;;;;;;;1.50;1.40;;;12.00;99.90;;;;;;8362620;28;20028;-82
2022/07/12 23:50:12;;;;;;;1.70;1.23;;;12.10;99.90;;;;;;8362699;28;20032;-82
2022/07/12 23:54:12;;;;;;;2.20;1.05;;;12.00;99.90;;;;;;8362608;28;20021;-82
2022/07/12 23:58:13;;;;;;;1.75;1.45;;;11.90;99.90;;;;;;8363167;28;20100;-83
